Time;durP1;ratioP1;P1;durP2;ratioP2;P2;SDS_P1;SDS_P2;PMS_P1;PMS_P2;Temp;Humidity;BMP_temperature;BMP_pressure;BME280_temperature;BME280_humidity;BME280_pressure;Samples;Min_cycle;Max_cycle;Signal;HPM_P1;HPM_P2
2022/04/15 00:00:14;;;;;;;0.10;0.10;;;12.20;99.90;12.80;88045.00;;;;4994525;28;20292;-72
2022/04/15 00:02:42;;;;;;;0.00;0.00;;;12.20;99.90;12.80;88045.00;;;;4994667;28;20567;-72
2022/04/15 00:07:57;;;;;;;0.10;0.10;;;12.20;99.90;12.80;88045.00;;;;4994497;28;20197;-70
2022/04/15 00:10:27;;;;;;;0.00;0.00;;;12.10;99.90;12.80;88045.00;;;;4994593;28;20259;-69
2022/04/15 00:12:56;;;;;;;0.10;0.10;;;12.20;99.90;12.80;88045.00;;;;4994669;28;20198;-69
2022/04/15 00:15:25;;;;;;;0.00;0.00;;;12.30;99.90;12.80;88045.00;;;;4994982;28;20255;-70
2022/04/15 00:17:53;;;;;;;0.10;0.10;;;12.20;99.90;12.80;88045.00;;;;4996685;28;20200;-70
2022/04/15 00:20:22;;;;;;;0.00;0.00;;;12.10;99.90;12.80;88045.00;;;;4996007;28;20212;-70
2022/04/15 00:22:52;;;;;;;0.10;0.10;;;11.90;99.90;12.80;88045.00;;;;4994926;28;20223;-70
2022/04/15 00:25:21;;;;;;;0.10;0.10;;;11.90;99.90;12.80;88045.00;;;;4996380;28;20638;-70
2022/04/15 00:27:54;;;;;;;0.08;0.08;;;11.80;99.90;12.80;88045.00;;;;4996313;28;20616;-70
2022/04/15 00:30:22;;;;;;;0.10;0.10;;;11.80;99.90;12.80;88045.00;;;;4996956;28;20220;-70
2022/04/15 00:32:50;;;;;;;0.10;0.10;;;11.80;99.90;12.80;88045.00;;;;4996999;28;20207;-71
2022/04/15 00:35:18;;;;;;;0.10;0.10;;;11.70;99.90;12.80;88045.00;;;;4993818;28;20208;-70
2022/04/15 00:37:48;;;;;;;0.10;0.10;;;11.70;99.90;12.80;88045.00;;;;4993870;28;20199;-71
2022/04/15 00:40:16;;;;;;;0.10;0.10;;;11.70;99.90;12.80;88045.00;;;;5009963;28;20216;-70
2022/04/15 00:42:45;;;;;;;0.00;0.00;;;11.70;99.90;12.80;88045.00;;;;5010688;28;20274;-70
2022/04/15 00:45:13;;;;;;;0.00;0.00;;;11.70;99.90;12.80;88045.00;;;;4994317;28;20228;-70
2022/04/15 00:47:48;;;;;;;0.10;0.10;;;11.60;99.90;12.80;88045.00;;;;4996423;28;20203;-70
2022/04/15 00:50:25;;;;;;;0.00;0.00;;;11.60;99.90;12.80;88045.00;;;;5009150;28;20228;-71
2022/04/15 00:52:58;;;;;;;0.10;0.10;;;11.50;99.90;12.80;88045.00;;;;4994044;28;20202;-70
2022/04/15 00:55:27;;;;;;;0.10;0.10;;;11.40;99.90;12.80;88045.00;;;;4994119;28;20211;-72
2022/04/15 00:57:59;;;;;;;0.10;0.10;;;11.30;99.90;12.80;88045.00;;;;4995947;28;20197;-71
2022/04/15 01:00:30;;;;;;;0.10;0.10;;;11.30;99.90;12.80;88045.00;;;;4998664;28;20256;-71
2022/04/15 01:03:00;;;;;;;0.10;0.10;;;11.20;99.90;12.80;88045.00;;;;5007734;28;20254;-70
2022/04/15 01:05:29;;;;;;;0.10;0.10;;;11.20;99.90;12.80;88045.00;;;;5000510;28;20228;-70
2022/04/15 01:08:00;;;;;;;0.00;0.00;;;11.20;99.90;12.80;88045.00;;;;4997457;28;20196;-71
2022/04/15 01:10:28;;;;;;;0.10;0.10;;;11.10;99.90;12.80;88045.00;;;;5005649;28;20230;-70
2022/04/15 01:12:59;;;;;;;0.10;0.10;;;11.10;99.90;12.80;88045.00;;;;5013073;28;20192;-70
2022/04/15 01:15:48;;;;;;;0.10;0.10;;;11.00;99.90;12.80;88045.00;;;;5012679;28;20195;-70
2022/04/15 01:18:16;;;;;;;0.10;0.10;;;11.00;99.90;12.80;88045.00;;;;5012816;28;20195;-70
2022/04/15 01:20:48;;;;;;;0.10;0.10;;;11.00;99.90;12.80;88045.00;;;;5012935;28;20572;-70
2022/04/15 01:23:18;;;;;;;0.10;0.10;;;10.80;99.90;12.80;88045.00;;;;5012805;28;20196;-70
2022/04/15 01:25:46;;;;;;;0.10;0.10;;;10.80;99.90;12.80;88045.00;;;;5012417;28;20203;-70
2022/04/15 01:28:17;;;;;;;0.10;0.10;;;10.70;99.90;12.80;88045.00;;;;5013483;28;20196;-70
2022/04/15 01:30:46;;;;;;;0.10;0.10;;;10.60;99.90;12.80;88045.00;;;;5012653;28;20222;-70
2022/04/15 01:33:14;;;;;;;0.10;0.10;;;10.60;99.90;12.80;88045.00;;;;5012464;28;20249;-70
2022/04/15 01:35:48;;;;;;;0.10;0.10;;;10.60;99.90;12.80;88045.00;;;;5012645;28;20807;-70
2022/04/15 01:38:19;;;;;;;0.10;0.10;;;10.40;99.90;12.80;88045.00;;;;5013115;28;20258;-70
2022/04/15 01:40:47;;;;;;;0.10;0.10;;;10.30;99.90;12.80;88045.00;;;;5012179;28;20703;-70
2022/04/15 01:43:15;;;;;;;0.10;0.10;;;10.30;99.90;12.80;88045.00;;;;5012302;28;20199;-70
2022/04/15 01:45:43;;;;;;;0.10;0.10;;;10.20;99.90;12.80;88045.00;;;;5010541;28;20715;-70
2022/04/15 01:48:11;;;;;;;0.10;0.10;;;10.10;99.90;12.80;88045.00;;;;5012086;28;20204;-70
2022/04/15 01:50:39;;;;;;;0.10;0.10;;;10.10;99.90;12.80;88045.00;;;;5012145;28;20235;-70
2022/04/15 01:53:07;;;;;;;0.10;0.10;;;10.10;99.90;12.80;88045.00;;;;5011903;28;20199;-70
2022/04/15 01:55:37;;;;;;;0.10;0.10;;;10.00;99.90;12.80;88045.00;;;;5012131;28;20204;-70
2022/04/15 01:58:06;;;;;;;0.10;0.10;;;10.00;99.90;12.80;88045.00;;;;5012245;28;20195;-70
2022/04/15 02:00:34;;;;;;;0.10;0.10;;;10.00;99.90;12.80;88045.00;;;;5010908;28;20219;-70
2022/04/15 02:03:01;;;;;;;0.10;0.10;;;9.90;99.90;12.80;88045.00;;;;5011859;28;20600;-71
2022/04/15 02:05:30;;;;;;;0.10;0.10;;;9.90;99.90;12.80;88045.00;;;;5011778;28;20199;-70
2022/04/15 02:07:58;;;;;;;0.10;0.10;;;9.80;99.90;12.80;88045.00;;;;5011857;28;20195;-70
2022/04/15 02:10:26;;;;;;;0.10;0.10;;;9.80;99.90;12.80;88045.00;;;;5011785;28;20212;-70
2022/04/15 02:12:55;;;;;;;0.10;0.10;;;9.70;99.90;12.80;88045.00;;;;5011842;28;20259;-70
2022/04/15 02:15:24;;;;;;;0.10;0.10;;;9.70;99.90;12.80;88045.00;;;;5011952;28;20187;-70
2022/04/15 02:17:54;;;;;;;0.10;0.10;;;9.70;99.90;12.80;88045.00;;;;5011380;28;20192;-70
2022/04/15 02:20:22;;;;;;;0.10;0.10;;;9.60;99.90;12.80;88045.00;;;;5011811;28;20586;-70
2022/04/15 02:22:51;;;;;;;0.10;0.10;;;9.60;99.90;12.80;88045.00;;;;5011524;28;20677;-70
2022/04/15 02:25:19;;;;;;;0.10;0.10;;;9.60;99.90;12.80;88045.00;;;;5011862;28;20242;-70
2022/04/15 02:27:47;;;;;;;0.10;0.10;;;9.60;99.90;12.80;88045.00;;;;5011402;28;20223;-71
2022/04/15 02:30:16;;;;;;;0.10;0.10;;;9.60;99.90;12.80;88045.00;;;;5011537;28;20246;-70
2022/04/15 02:32:44;;;;;;;0.10;0.10;;;9.60;99.90;12.80;88045.00;;;;5011793;28;20602;-70
2022/04/15 02:35:12;;;;;;;0.10;0.10;;;9.70;99.90;12.80;88045.00;;;;5011742;28;20204;-70
2022/04/15 02:37:40;;;;;;;0.10;0.10;;;9.60;99.90;12.80;88045.00;;;;5011623;28;20191;-70
2022/04/15 02:40:10;;;;;;;0.10;0.10;;;9.60;99.90;12.80;88045.00;;;;5000777;28;20646;-70
2022/04/15 02:42:38;;;;;;;0.10;0.10;;;9.60;99.90;12.80;88045.00;;;;5004674;28;20211;-70
2022/04/15 02:45:09;;;;;;;0.10;0.10;;;9.70;99.90;12.80;88045.00;;;;5012650;28;20203;-70
2022/04/15 02:47:40;;;;;;;0.00;0.00;;;9.60;99.90;12.80;88045.00;;;;5015376;28;20223;-70
2022/04/15 02:50:08;;;;;;;0.10;0.10;;;9.70;99.90;12.80;88045.00;;;;5015478;28;20208;-70
2022/04/15 02:52:36;;;;;;;0.00;0.00;;;9.70;99.90;12.80;88045.00;;;;5015491;28;20242;-70
2022/04/15 02:55:06;;;;;;;0.10;0.10;;;9.70;99.90;12.80;88045.00;;;;5015475;28;20195;-70
2022/04/15 02:57:34;;;;;;;0.10;0.10;;;9.70;99.90;12.80;88045.00;;;;5015212;28;20198;-70
2022/04/15 03:00:02;;;;;;;0.10;0.10;;;9.60;99.90;12.80;88045.00;;;;5015347;28;20701;-70
2022/04/15 03:02:32;;;;;;;0.10;0.10;;;9.50;99.90;12.80;88045.00;;;;5015436;28;20198;-70
2022/04/15 03:05:03;;;;;;;0.10;0.10;;;9.60;99.90;12.80;88045.00;;;;5015053;28;20196;-70
2022/04/15 03:07:31;;;;;;;0.10;0.10;;;9.50;99.90;12.80;88045.00;;;;5015115;28;20227;-70
2022/04/15 03:09:59;;;;;;;0.10;0.10;;;9.50;99.90;12.80;88045.00;;;;5006514;28;20224;-71
2022/04/15 03:12:27;;;;;;;0.10;0.10;;;9.40;99.90;12.80;88045.00;;;;5005740;28;20199;-70
2022/04/15 03:14:55;;;;;;;0.10;0.10;;;9.30;99.90;12.80;88045.00;;;;5014872;28;20199;-70
2022/04/15 03:17:23;;;;;;;0.10;0.10;;;9.40;99.90;12.80;88045.00;;;;5014836;28;20192;-70
2022/04/15 03:19:51;;;;;;;0.05;0.05;;;9.30;99.90;12.80;88045.00;;;;5014881;28;20199;-71
2022/04/15 03:22:21;;;;;;;0.10;0.10;;;9.30;99.90;12.80;88045.00;;;;5015042;28;20563;-71
2022/04/15 03:24:51;;;;;;;0.10;0.10;;;9.30;99.90;12.80;88045.00;;;;5017153;28;20192;-70
2022/04/15 03:27:19;;;;;;;0.10;0.10;;;9.30;99.90;12.80;88045.00;;;;5018022;28;20226;-71
2022/04/15 03:29:47;;;;;;;0.00;0.00;;;9.20;99.90;12.80;88045.00;;;;5022302;28;20192;-70
2022/04/15 03:32:15;;;;;;;0.10;0.10;;;9.10;99.90;12.80;88045.00;;;;5014825;28;20258;-70
2022/04/15 03:34:43;;;;;;;0.10;0.10;;;9.10;99.90;12.80;88045.00;;;;5014962;28;20227;-71
2022/04/15 03:37:11;;;;;;;0.10;0.10;;;9.10;99.90;12.80;88045.00;;;;5014581;28;20200;-71
2022/04/15 03:39:40;;;;;;;0.10;0.10;;;9.10;99.90;12.80;88045.00;;;;5014692;28;20254;-71
2022/04/15 03:42:09;;;;;;;0.10;0.10;;;9.00;99.90;12.80;88045.00;;;;5015162;28;20191;-71
2022/04/15 03:44:37;;;;;;;0.10;0.10;;;9.00;99.90;12.80;88045.00;;;;5014758;28;20657;-74
2022/04/15 03:47:06;;;;;;;0.10;0.10;;;9.00;99.90;12.80;88045.00;;;;5014233;28;20207;-71
2022/04/15 03:49:35;;;;;;;0.10;0.10;;;9.10;99.90;12.80;88045.00;;;;5014503;28;20196;-71
2022/04/15 03:52:04;;;;;;;0.10;0.10;;;9.00;99.90;12.80;88045.00;;;;5014187;28;20684;-71
2022/04/15 03:54:32;;;;;;;0.10;0.10;;;9.00;99.90;12.80;88045.00;;;;5014469;28;20188;-71
2022/04/15 03:57:01;;;;;;;0.10;0.10;;;9.00;99.90;12.80;88045.00;;;;5014176;28;20188;-71
2022/04/15 03:59:29;;;;;;;0.10;0.10;;;9.10;99.90;12.80;88045.00;;;;5029615;28;20191;-71
2022/04/15 04:01:57;;;;;;;0.08;0.08;;;9.00;99.90;12.80;88045.00;;;;5014188;28;20218;-71
2022/04/15 04:04:25;;;;;;;0.10;0.10;;;9.00;99.90;12.80;88045.00;;;;5014398;28;20666;-71
2022/04/15 04:06:53;;;;;;;0.00;0.00;;;9.00;99.90;12.80;88045.00;;;;5013777;28;20286;-71
2022/04/15 04:09:21;;;;;;;0.10;0.10;;;9.00;99.90;12.80;88045.00;;;;5014316;28;20203;-71
2022/04/15 04:11:48;;;;;;;0.10;0.10;;;9.00;99.90;12.80;88045.00;;;;5014280;28;20217;-71
2022/04/15 04:14:18;;;;;;;0.10;0.10;;;8.90;99.90;12.80;88045.00;;;;5014096;28;20254;-71
2022/04/15 04:16:46;;;;;;;0.10;0.10;;;8.90;99.90;12.80;88045.00;;;;5013762;28;20188;-71
2022/04/15 04:19:13;;;;;;;0.00;0.00;;;8.90;99.90;12.80;88045.00;;;;5014341;28;20195;-71
2022/04/15 04:21:41;;;;;;;0.00;0.00;;;9.10;99.90;12.80;88045.00;;;;5015123;28;20230;-71
2022/04/15 04:24:09;;;;;;;0.10;0.10;;;9.20;99.90;12.80;88045.00;;;;5015523;28;20604;-71
2022/04/15 04:26:37;;;;;;;0.10;0.10;;;9.10;99.90;12.80;88045.00;;;;5015621;28;20188;-71
2022/04/15 04:29:05;;;;;;;0.10;0.10;;;9.00;99.90;12.80;88045.00;;;;5015191;28;20225;-71
2022/04/15 04:31:40;;;;;;;0.00;0.00;;;9.00;99.90;12.80;88045.00;;;;5015309;28;20200;-71
2022/04/15 04:34:08;;;;;;;0.10;0.10;;;8.90;99.90;12.80;88045.00;;;;5015521;28;20199;-71
2022/04/15 04:36:36;;;;;;;0.10;0.10;;;8.90;99.90;12.80;88045.00;;;;5015046;28;20219;-71
2022/04/15 04:39:08;;;;;;;0.10;0.10;;;8.90;99.90;12.80;88045.00;;;;5014155;28;20207;-71
2022/04/15 04:41:38;;;;;;;0.10;0.10;;;8.80;99.90;12.80;88045.00;;;;5015754;28;20219;-71
2022/04/15 04:44:07;;;;;;;0.00;0.00;;;8.90;99.90;12.80;88045.00;;;;5015492;28;20188;-73
2022/04/15 04:46:36;;;;;;;0.10;0.10;;;8.90;99.90;12.80;88045.00;;;;5014883;28;20198;-72
2022/04/15 04:49:05;;;;;;;0.10;0.10;;;8.90;99.90;12.80;88045.00;;;;5014689;28;20274;-72
2022/04/15 04:51:34;;;;;;;0.10;0.10;;;8.90;99.90;12.80;88045.00;;;;5016220;28;20910;-72
2022/04/15 04:54:01;;;;;;;0.00;0.00;;;9.00;99.90;12.80;88045.00;;;;5015906;28;20262;-72
2022/04/15 04:56:30;;;;;;;0.10;0.10;;;9.00;99.90;12.80;88045.00;;;;5015088;28;20191;-72
2022/04/15 04:58:58;;;;;;;0.10;0.10;;;9.10;99.90;12.80;88045.00;;;;5015775;28;20196;-72
2022/04/15 05:01:26;;;;;;;0.10;0.10;;;9.20;99.90;12.80;88045.00;;;;5015451;28;20212;-73
2022/04/15 05:03:54;;;;;;;0.10;0.10;;;9.20;99.90;12.80;88045.00;;;;5015796;28;20707;-73
2022/04/15 05:06:23;;;;;;;0.00;0.00;;;9.10;99.90;12.80;88045.00;;;;5016090;28;20196;-72
2022/04/15 05:08:51;;;;;;;0.10;0.10;;;9.00;99.90;12.80;88045.00;;;;5014933;28;20227;-73
2022/04/15 05:11:19;;;;;;;0.03;0.03;;;9.10;99.90;12.80;88045.00;;;;5016616;28;20215;-72
2022/04/15 05:13:50;;;;;;;0.00;0.00;;;9.10;99.90;12.80;88045.00;;;;5015418;28;20191;-73
2022/04/15 05:16:18;;;;;;;0.10;0.10;;;9.00;99.90;12.80;88045.00;;;;5015053;28;20195;-73
2022/04/15 05:18:46;;;;;;;0.10;0.10;;;8.80;99.90;12.80;88045.00;;;;5015636;28;20223;-72
2022/04/15 05:21:14;;;;;;;0.03;0.03;;;8.80;99.90;12.80;88045.00;;;;5014864;28;20230;-72
2022/04/15 05:23:45;;;;;;;0.10;0.10;;;8.80;99.90;12.80;88045.00;;;;5015990;28;20190;-72
2022/04/15 05:26:13;;;;;;;0.00;0.00;;;8.90;99.90;12.80;88045.00;;;;5015669;28;20212;-72
2022/04/15 05:28:42;;;;;;;0.10;0.10;;;8.90;99.90;12.80;88045.00;;;;5015521;28;20636;-72
2022/04/15 05:31:10;;;;;;;0.10;0.10;;;9.00;99.90;12.80;88045.00;;;;5014943;28;20212;-72
2022/04/15 05:33:38;;;;;;;0.10;0.10;;;9.10;99.90;12.80;88045.00;;;;5015211;28;20198;-73
2022/04/15 05:36:07;;;;;;;0.10;0.10;;;9.00;99.90;12.80;88045.00;;;;5015620;28;20207;-72
2022/04/15 05:38:35;;;;;;;0.10;0.10;;;8.90;99.90;12.80;88045.00;;;;5015426;28;20192;-72
2022/04/15 05:41:07;;;;;;;0.10;0.10;;;9.00;99.90;12.80;88045.00;;;;5015501;28;20630;-72
2022/04/15 05:43:35;;;;;;;0.10;0.10;;;9.00;99.90;12.80;88045.00;;;;5016976;28;20195;-72
2022/04/15 05:46:03;;;;;;;0.10;0.10;;;9.10;99.90;12.80;88045.00;;;;5015147;28;20206;-72
2022/04/15 05:48:31;;;;;;;0.10;0.10;;;9.10;99.90;12.80;88045.00;;;;5014992;28;20223;-72
2022/04/15 05:50:59;;;;;;;0.10;0.10;;;9.10;99.90;12.80;88045.00;;;;5015163;28;20237;-73
2022/04/15 05:53:27;;;;;;;0.10;0.10;;;9.20;99.90;12.80;88045.00;;;;5015068;28;20188;-72
2022/04/15 05:55:55;;;;;;;0.10;0.10;;;9.20;99.90;12.80;88045.00;;;;5012573;28;20216;-72
2022/04/15 05:58:25;;;;;;;0.10;0.10;;;9.20;99.90;12.80;88045.00;;;;4999490;28;20258;-72
2022/04/15 06:00:54;;;;;;;0.10;0.10;;;9.20;99.90;12.80;88045.00;;;;5005287;28;20472;-72
2022/04/15 06:03:23;;;;;;;0.10;0.10;;;9.10;99.90;12.80;88045.00;;;;5014829;28;20195;-72
2022/04/15 06:05:51;;;;;;;0.10;0.10;;;9.20;99.90;12.80;88045.00;;;;4999171;28;20270;-72
2022/04/15 06:08:19;;;;;;;0.10;0.10;;;9.20;99.90;12.80;88045.00;;;;4995863;28;20220;-73
2022/04/15 06:10:47;;;;;;;0.10;0.10;;;9.20;99.90;12.80;88045.00;;;;4994967;28;20230;-72
2022/04/15 06:13:22;;;;;;;0.08;0.08;;;9.30;99.90;12.80;88045.00;;;;4995457;28;20215;-71
2022/04/15 06:15:53;;;;;;;0.10;0.10;;;9.30;99.90;12.80;88045.00;;;;4993245;28;20239;-73
2022/04/15 06:18:22;;;;;;;0.10;0.10;;;9.40;99.90;12.80;88045.00;;;;4992891;28;20197;-73
2022/04/15 06:20:51;;;;;;;0.10;0.10;;;9.40;99.90;12.80;88045.00;;;;4995765;28;20212;-73
2022/04/15 06:23:20;;;;;;;0.10;0.10;;;9.30;99.90;12.80;88045.00;;;;5012738;28;20192;-73
2022/04/15 06:25:48;;;;;;;0.10;0.10;;;9.40;99.90;12.80;88045.00;;;;4995642;28;20689;-73
2022/04/15 06:28:16;;;;;;;0.10;0.10;;;9.40;99.90;12.80;88045.00;;;;4999183;28;20223;-73
2022/04/15 06:30:44;;;;;;;0.10;0.10;;;9.40;99.90;12.80;88045.00;;;;4997624;28;20215;-73
2022/04/15 06:33:16;;;;;;;0.10;0.10;;;9.40;99.90;12.80;88045.00;;;;4999280;28;20211;-73
2022/04/15 06:35:44;;;;;;;0.10;0.10;;;9.50;99.90;12.80;88045.00;;;;5006465;28;20608;-72
2022/04/15 06:38:12;;;;;;;0.10;0.10;;;9.60;99.90;12.80;88045.00;;;;5019581;28;20211;-72
2022/04/15 06:40:41;;;;;;;0.10;0.10;;;9.60;99.90;12.80;88045.00;;;;5019892;28;20208;-72
2022/04/15 06:43:09;;;;;;;0.10;0.10;;;9.70;99.90;12.80;88045.00;;;;5020084;28;20203;-73
2022/04/15 06:45:37;;;;;;;0.10;0.10;;;9.80;99.90;12.80;88045.00;;;;5019526;28;20191;-72
2022/04/15 06:48:06;;;;;;;0.10;0.10;;;9.80;99.90;12.80;88045.00;;;;5021657;28;20227;-72
2022/04/15 06:50:36;;;;;;;0.10;0.10;;;9.90;99.90;12.80;88045.00;;;;5022052;28;20631;-73
2022/04/15 06:53:04;;;;;;;0.10;0.10;;;10.00;99.90;12.80;88045.00;;;;5022250;28;20204;-72
2022/04/15 06:55:32;;;;;;;0.00;0.00;;;10.00;99.90;12.80;88045.00;;;;5020994;28;20238;-72
2022/04/15 06:58:00;;;;;;;0.10;0.10;;;9.90;99.90;12.80;88045.00;;;;5018077;28;20207;-74
2022/04/15 07:00:28;;;;;;;0.10;0.10;;;9.90;99.90;12.80;88045.00;;;;5018035;28;20211;-72
2022/04/15 07:02:57;;;;;;;0.10;0.10;;;10.00;99.90;12.80;88045.00;;;;5017310;28;20196;-73
2022/04/15 07:05:25;;;;;;;0.10;0.10;;;10.00;99.90;12.80;88045.00;;;;5017916;28;20192;-72
2022/04/15 07:07:54;;;;;;;0.10;0.10;;;10.10;99.90;12.80;88045.00;;;;5016028;28;20251;-73
2022/04/15 07:10:23;;;;;;;0.10;0.10;;;10.20;99.90;12.80;88045.00;;;;5018420;28;20261;-72
2022/04/15 07:12:51;;;;;;;0.10;0.10;;;10.30;99.90;12.80;88045.00;;;;5021114;28;20198;-72
2022/04/15 07:15:20;;;;;;;0.10;0.10;;;10.40;99.90;12.80;88045.00;;;;5021480;28;20200;-72
2022/04/15 07:17:48;;;;;;;0.10;0.10;;;10.50;99.90;12.80;88045.00;;;;5021850;28;20220;-72
2022/04/15 07:20:16;;;;;;;0.10;0.10;;;10.60;99.90;12.80;88045.00;;;;5019905;28;20480;-73
2022/04/15 07:22:44;;;;;;;0.10;0.10;;;10.80;99.90;12.80;88045.00;;;;5020596;28;20203;-72
2022/04/15 07:25:13;;;;;;;0.10;0.10;;;10.90;99.90;12.80;88045.00;;;;5022988;28;20200;-72
2022/04/15 07:27:41;;;;;;;0.00;0.00;;;10.90;99.90;12.80;88045.00;;;;5022463;28;20195;-72
2022/04/15 07:30:11;;;;;;;0.10;0.10;;;11.00;99.90;12.80;88045.00;;;;5021235;28;20259;-72
2022/04/15 07:32:39;;;;;;;0.10;0.10;;;11.00;99.90;12.80;88045.00;;;;5018593;28;20196;-73
2022/04/15 07:35:08;;;;;;;0.10;0.10;;;11.20;99.90;12.80;88045.00;;;;5017106;28;20200;-72
2022/04/15 07:37:36;;;;;;;0.10;0.10;;;11.20;99.90;12.80;88045.00;;;;5016425;28;20215;-72
2022/04/15 07:40:06;;;;;;;0.10;0.10;;;11.40;99.90;12.80;88045.00;;;;5017225;28;20216;-73
2022/04/15 07:42:35;;;;;;;0.10;0.10;;;11.40;99.90;12.80;88045.00;;;;5016017;28;20196;-73
2022/04/15 07:45:05;;;;;;;0.00;0.00;;;11.40;99.90;12.80;88045.00;;;;5016417;28;20546;-72
2022/04/15 07:47:33;;;;;;;0.05;0.05;;;11.40;99.90;12.80;88045.00;;;;5015598;28;20204;-73
2022/04/15 07:50:21;;;;;;;0.10;0.10;;;11.50;99.90;12.80;88045.00;;;;5015743;28;20258;-72
2022/04/15 07:52:49;;;;;;;0.10;0.10;;;11.60;99.90;12.80;88045.00;;;;5016045;28;20196;-72
2022/04/15 07:55:18;;;;;;;0.08;0.08;;;11.70;99.90;12.80;88045.00;;;;5015412;28;20199;-72
2022/04/15 07:57:48;;;;;;;0.00;0.00;;;11.70;99.90;12.80;88045.00;;;;5015538;28;20553;-72
2022/04/15 08:00:17;;;;;;;0.10;0.10;;;11.80;99.90;12.80;88045.00;;;;5016241;28;20219;-72
2022/04/15 08:02:45;;;;;;;0.10;0.10;;;11.80;99.90;12.80;88045.00;;;;5016218;28;20196;-72
2022/04/15 08:05:13;;;;;;;0.10;0.10;;;11.90;99.90;12.80;88045.00;;;;5015631;28;20593;-72
2022/04/15 08:07:41;;;;;;;0.03;0.03;;;12.00;99.90;12.80;88045.00;;;;5015461;28;20657;-72
2022/04/15 08:10:10;;;;;;;0.10;0.10;;;12.00;99.90;12.80;88045.00;;;;5015007;28;20227;-72
2022/04/15 08:12:38;;;;;;;0.10;0.10;;;12.20;99.90;12.80;88045.00;;;;5015333;28;20202;-73
2022/04/15 08:15:08;;;;;;;0.10;0.10;;;12.20;99.90;12.80;88045.00;;;;5016078;28;20215;-72
2022/04/15 08:17:36;;;;;;;0.10;0.10;;;12.20;99.90;12.80;88045.00;;;;5015708;28;20206;-74
2022/04/15 08:20:07;;;;;;;0.10;0.10;;;12.20;99.90;12.80;88045.00;;;;5016819;28;20226;-73
2022/04/15 08:22:36;;;;;;;0.10;0.10;;;12.10;99.90;12.80;88045.00;;;;5018614;28;20253;-72
2022/04/15 08:25:06;;;;;;;0.10;0.10;;;12.20;99.90;12.80;88045.00;;;;5017585;28;20251;-72
2022/04/15 08:27:34;;;;;;;0.10;0.10;;;12.20;99.90;12.80;88045.00;;;;5015522;28;20198;-73
2022/04/15 08:30:04;;;;;;;0.10;0.10;;;12.10;99.90;12.80;88045.00;;;;5015249;28;20234;-73
2022/04/15 08:32:33;;;;;;;0.10;0.10;;;12.10;99.90;12.80;88045.00;;;;5015226;28;20210;-72
2022/04/15 08:35:12;;;;;;;0.10;0.10;;;12.10;99.90;12.80;88045.00;;;;5014971;28;20613;-73
2022/04/15 08:37:41;;;;;;;0.10;0.10;;;12.10;99.90;12.80;88045.00;;;;5015066;28;20250;-73
2022/04/15 08:40:12;;;;;;;0.00;0.00;;;11.80;99.90;12.80;88045.00;;;;5013020;28;20223;-72
2022/04/15 08:42:42;;;;;;;0.10;0.10;;;11.80;99.90;12.80;88045.00;;;;5013713;28;20223;-72
2022/04/15 08:45:12;;;;;;;0.10;0.10;;;11.90;99.90;12.80;88045.00;;;;5014138;28;20196;-72
2022/04/15 08:47:43;;;;;;;0.10;0.10;;;11.90;99.90;12.80;88045.00;;;;5015005;28;20200;-72
2022/04/15 08:50:13;;;;;;;0.10;0.10;;;12.00;99.90;12.80;88045.00;;;;5013603;28;20610;-72
2022/04/15 08:52:41;;;;;;;0.10;0.10;;;12.10;99.90;12.80;88045.00;;;;5013588;28;20192;-69
2022/04/15 08:55:10;;;;;;;0.10;0.10;;;12.10;99.90;12.80;88045.00;;;;5014048;28;20199;-72
2022/04/15 08:57:38;;;;;;;0.10;0.10;;;12.20;99.90;12.80;88045.00;;;;5013426;28;20199;-72
2022/04/15 09:00:09;;;;;;;0.10;0.10;;;12.20;99.90;12.80;88045.00;;;;5014217;28;20215;-72
2022/04/15 09:02:37;;;;;;;0.10;0.10;;;12.30;99.90;12.80;88045.00;;;;5012892;28;20546;-72
2022/04/15 09:05:18;;;;;;;0.10;0.10;;;12.40;99.90;12.80;88045.00;;;;5012998;28;20188;-72
2022/04/15 09:07:46;;;;;;;0.10;0.10;;;12.50;99.90;12.80;88045.00;;;;5013474;28;20203;-72
2022/04/15 09:10:19;;;;;;;0.10;0.10;;;12.60;99.90;12.80;88045.00;;;;5016021;28;20224;-72
2022/04/15 09:12:52;;;;;;;0.10;0.10;;;12.50;99.90;12.80;88045.00;;;;5015249;28;20188;-72
2022/04/15 09:15:24;;;;;;;0.00;0.00;;;12.50;99.90;12.80;88045.00;;;;5013202;28;20222;-72
2022/04/15 09:17:54;;;;;;;0.10;0.10;;;12.50;99.90;12.80;88045.00;;;;5012425;28;20198;-72
2022/04/15 09:20:25;;;;;;;0.10;0.10;;;12.50;99.90;12.80;88045.00;;;;5012857;28;20262;-72
2022/04/15 09:22:55;;;;;;;0.10;0.10;;;12.50;99.90;12.80;88045.00;;;;5012846;28;20199;-72
2022/04/15 09:25:27;;;;;;;0.10;0.10;;;12.30;99.90;12.80;88045.00;;;;5012851;28;20188;-72
2022/04/15 09:27:57;;;;;;;0.00;0.00;;;12.40;99.90;12.80;88045.00;;;;5012788;28;20226;-72
2022/04/15 09:30:40;;;;;;;0.10;0.10;;;12.40;99.90;12.80;88045.00;;;;5012647;28;20223;-72
2022/04/15 09:33:11;;;;;;;0.00;0.00;;;12.50;99.90;12.80;88045.00;;;;5012960;28;20187;-72
2022/04/15 09:35:45;;;;;;;0.10;0.10;;;12.60;99.90;12.80;88045.00;;;;5012685;28;20199;-72
2022/04/15 09:38:13;;;;;;;0.10;0.10;;;12.70;99.90;12.80;88045.00;;;;5012609;28;20191;-72
2022/04/15 09:40:41;;;;;;;0.10;0.10;;;12.70;99.90;12.80;88045.00;;;;5012306;28;20270;-71
2022/04/15 09:43:11;;;;;;;0.10;0.10;;;12.70;99.90;12.80;88045.00;;;;5012610;28;20219;-71
2022/04/15 09:45:39;;;;;;;0.10;0.10;;;12.60;99.90;12.80;88045.00;;;;5012613;28;20192;-71
2022/04/15 09:48:09;;;;;;;0.10;0.10;;;12.50;99.90;12.80;88045.00;;;;5005564;28;20250;-72
2022/04/15 09:50:41;;;;;;;0.10;0.10;;;12.30;99.90;12.80;88045.00;;;;4999719;28;20235;-72
2022/04/15 09:53:13;;;;;;;0.10;0.10;;;12.40;99.90;12.80;88045.00;;;;4995033;28;20220;-72
2022/04/15 09:55:43;;;;;;;0.10;0.10;;;12.40;99.90;12.80;88045.00;;;;4996853;28;20218;-72
2022/04/15 09:58:14;;;;;;;0.10;0.10;;;12.40;99.90;12.80;88045.00;;;;5004370;28;20238;-72
2022/04/15 10:00:45;;;;;;;0.00;0.00;;;12.50;99.90;12.80;88045.00;;;;4992962;28;20787;-72
2022/04/15 10:03:19;;;;;;;0.10;0.10;;;12.30;99.90;12.80;88045.00;;;;4992991;28;20188;-72
2022/04/15 10:05:50;;;;;;;0.10;0.10;;;12.40;99.90;12.80;88045.00;;;;5011286;28;20200;-73
2022/04/15 10:08:22;;;;;;;0.10;0.10;;;12.50;99.90;12.80;88045.00;;;;5015380;28;20191;-73
2022/04/15 10:10:52;;;;;;;0.00;0.00;;;12.50;99.90;12.80;88045.00;;;;5013845;28;20314;-72
2022/04/15 10:13:26;;;;;;;0.10;0.10;;;12.60;99.90;12.80;88045.00;;;;5012139;28;20314;-72
2022/04/15 10:15:55;;;;;;;0.10;0.10;;;12.60;99.90;12.80;88045.00;;;;5007185;28;20286;-72
2022/04/15 10:18:26;;;;;;;0.10;0.10;;;12.30;99.90;12.80;88045.00;;;;4994456;28;20537;-72
2022/04/15 10:20:54;;;;;;;0.05;0.05;;;12.10;99.90;12.80;88045.00;;;;4996120;28;20319;-72
2022/04/15 10:23:25;;;;;;;0.10;0.10;;;11.90;99.90;12.80;88045.00;;;;4994106;28;20350;-72
2022/04/15 10:25:55;;;;;;;0.10;0.10;;;11.90;99.90;12.80;88045.00;;;;4997410;28;20204;-72
2022/04/15 10:28:42;;;;;;;0.10;0.10;;;11.80;99.90;12.80;88045.00;;;;5012663;28;20279;-72
2022/04/15 10:31:13;;;;;;;0.10;0.10;;;11.70;99.90;12.80;88045.00;;;;4997232;28;20223;-72
2022/04/15 10:33:42;;;;;;;0.10;0.10;;;11.60;99.90;12.80;88045.00;;;;4995786;28;20203;-73
2022/04/15 10:36:15;;;;;;;0.10;0.10;;;11.50;99.90;12.80;88045.00;;;;5012963;28;20549;-72
2022/04/15 10:39:17;;;;;;;0.10;0.10;;;11.40;99.90;12.80;88045.00;;;;5018320;28;20196;-72
2022/04/15 10:42:01;;;;;;;0.10;0.10;;;11.40;99.90;12.80;88045.00;;;;4989029;28;20231;-72
2022/04/15 10:44:33;;;;;;;0.10;0.10;;;11.40;99.90;12.80;88045.00;;;;5021080;28;20213;-72
2022/04/15 10:47:11;;;;;;;0.00;0.00;;;11.50;99.90;12.80;88045.00;;;;5017927;28;20196;-72
2022/04/15 10:49:53;;;;;;;0.10;0.10;;;11.50;99.90;12.80;88045.00;;;;5017700;28;20220;-72
2022/04/15 10:52:24;;;;;;;0.10;0.10;;;11.60;99.90;12.80;88045.00;;;;5015027;28;20220;-72
2022/04/15 10:54:55;;;;;;;0.10;0.10;;;11.40;99.90;12.80;88045.00;;;;5014111;28;20223;-73
2022/04/15 10:57:30;;;;;;;0.10;0.10;;;11.40;99.90;12.80;88045.00;;;;5014181;28;20680;-72
2022/04/15 11:02:50;;;;;;;0.10;0.10;;;11.40;99.90;12.80;88045.00;;;;5010197;28;20299;-72
2022/04/15 11:05:52;;;;;;;0.10;0.10;;;11.40;99.90;12.80;88045.00;;;;4995041;28;20658;-73
2022/04/15 11:08:22;;;;;;;0.10;0.10;;;11.40;99.90;12.80;88045.00;;;;4998827;28;20196;-73
2022/04/15 11:11:03;;;;;;;0.10;0.10;;;11.40;99.90;12.80;88045.00;;;;5001376;28;20215;-72
2022/04/15 11:13:58;;;;;;;0.10;0.10;;;11.40;99.90;12.80;88045.00;;;;5017809;28;20286;-73